Flight Track Log - Related Links

Times and Time Zones

All times are in EDT time to prevent confusion due to time zone crossing. See the GJS3707 flight status page for this flight to view local times or setup timezone preferences in your user account.

Time Position Orientation Groundspeed Altitude Reporting Facility
EDT Latitude Longitude Course Direction KTS MPH feet Rate Location/Type
Mon 04:40:12 PM 43.5842 -116.3006 81° East 191 220 4,900  Level Salt Lake Center
Mon 04:41:14 PM 43.6200 -116.3722 305° West 232 267 6,700 1,597 Climbing Salt Lake Center
Mon 04:42:00 PM 43.6557 -115.5329 65° Northeast  Level FlightAware Approximate
Mon 04:42:16 PM 43.6733 -116.3092 41° Northeast 286 329 8,200  Level Salt Lake Center
Mon 04:43:00 PM 43.6748 -115.3605 81° East  Level FlightAware Approximate
Mon 04:43:18 PM 43.6883 -116.1783 81° East 309 356 10,500  Level Salt Lake Center
Mon 04:44:00 PM 43.7048 -115.1903 81° East  Level FlightAware Approximate
Mon 04:44:19 PM 43.7031 -116.0528 81° East 343 395 11,700  Level Salt Lake Center
Mon 04:45:00 PM 43.7243 -115.0157 81° East  Level FlightAware Approximate
Mon 04:45:21 PM 43.7231 -115.8881 80° East 386 444 13,300  Level Salt Lake Center
Mon 04:46:23 PM 43.7403 -115.7414 81° East 403 464 14,800 1,645 Climbing Salt Lake Center
Mon 04:47:25 PM 43.7614 -115.5611 81° East 425 489 16,700 1,645 Climbing Salt Lake Center
Mon 04:48:27 PM 43.7783 -115.4042 81° East 431 496 18,200 1,610 Climbing Salt Lake Center
Mon 04:49:28 PM 43.7964 -115.2481 81° East 432 497 20,000 1,805 Climbing Salt Lake Center
Mon 04:50:30 PM 43.8150 -115.0658 82° East 430 495 21,900 1,597 Climbing Salt Lake Center
Mon 04:51:32 PM 43.8331 -114.9075 81° East 434 499 23,300 1,355 Climbing Salt Lake Center
Mon 04:52:34 PM 43.8528 -114.7197 82° East 441 507 24,700 1,122 Climbing Salt Lake Center
Mon 04:53:35 PM 43.8714 -114.5536 81° East 456 525 25,600 976 Climbing Salt Lake Center
Mon 04:54:37 PM 43.8917 -114.3558 82° East 465 535 26,700 1,016 Climbing Salt Lake Center
Mon 04:55:39 PM 43.9083 -114.1844 82° East 472 543 27,700 1,016 Climbing Salt Lake Center
Mon 04:56:41 PM 43.9292 -113.9825 82° East 476 548 28,800 1,024 Climbing Salt Lake Center
Mon 04:57:42 PM 43.9333 -113.8175 88° East 470 541 29,800 1,024 Climbing Salt Lake Center
Mon 04:58:44 PM 43.9333 -113.6114 90° East 477 549 30,900 774 Climbing Salt Lake Center
Mon 04:59:46 PM 43.9361 -113.4342 89° East 479 551 31,400 532 Climbing Salt Lake Center
Mon 05:00:48 PM 43.9969 -113.2361 67° East 498 573 32,000 585 Climbing Salt Lake Center
Mon 05:01:49 PM 44.0147 -113.0503 82° East 507 583 32,600 488 Climbing Salt Lake Center
Mon 05:02:51 PM 44.0353 -112.8336 82° East 508 585 33,000 194 Climbing Salt Lake Center
Mon 05:03:53 PM 44.0533 -112.6431 82° East 517 595 33,000  Level Salt Lake Center
Mon 05:04:55 PM 44.0686 -112.4494 84° East 525 604 33,000  Level Salt Lake Center
Mon 05:05:57 PM 44.0867 -112.2217 84° East 531 611 33,000 293 Level Salt Lake Center
Mon 05:06:58 PM 44.0903 -112.0303 88° East 520 598 33,600 732 Climbing Salt Lake Center
Mon 05:08:00 PM 44.0925 -111.8108 89° East 512 589 34,500 629 Climbing Salt Lake Center
Mon 05:09:02 PM 44.0928 -111.6208 90° East 514 592 34,900 484 Climbing Salt Lake Center
Mon 05:10:04 PM 44.0931 -111.3983 90° East 519 597 35,500 537 Climbing Salt Lake Center
Mon 05:11:05 PM 44.0939 -111.2083 90° East 519 597 36,000 537 Climbing Salt Lake Center
Mon 05:12:07 PM 44.0939 -110.9842 90° East 522 601 36,600 484 Climbing Salt Lake Center
Mon 05:13:09 PM 44.0939 -110.7936 90° East 519 597 37,000 194 Climbing Salt Lake Center
Mon 05:14:11 PM 44.0936 -110.5675 90° East 525 604 37,000  Level Salt Lake Center
Mon 05:15:13 PM 44.0922 -110.3711 90° East 532 612 37,000  Level Salt Lake Center
Mon 05:16:14 PM 44.0914 -110.1442 90° East 530 610 37,000  Level Salt Lake Center
Mon 05:17:16 PM 44.1017 -109.9478 86° East 543 625 37,000  Level Salt Lake Center
Mon 05:18:18 PM 44.1575 -109.7636 67° East 543 625 37,000  Level Salt Lake Center
Mon 05:19:20 PM 44.2308 -109.5553 64° Northeast 540 621 37,000  Level Salt Lake Center
Mon 05:20:22 PM 44.3011 -109.3536 64° Northeast 534 615 37,000  Level Salt Lake Center
Mon 05:21:24 PM 44.3711 -109.1686 62° Northeast 539 620 37,000  Level Salt Lake Center
Mon 05:22:25 PM 44.4314 -108.9781 66° East 539 620 37,000  Level Salt Lake Center
Mon 05:23:27 PM 44.4500 -108.7714 83° East 538 619 37,000  Level Salt Lake Center
Mon 05:24:29 PM 44.4658 -108.5661 84° East 534 615 37,000  Level Salt Lake Center
Mon 05:25:31 PM 44.5172 -108.3686 70° East 542 624 37,000  Level Salt Lake Center
Mon 05:26:33 PM 44.5800 -108.1319 70° East 543 625 37,000  Level Salt Lake Center
Mon 05:27:35 PM 44.6122 -107.9303 77° East 547 629 37,000  Level Salt Lake Center
Mon 05:28:36 PM 44.6092 -107.7261 91° East 536 617 37,000 49 Level Salt Lake Center
Mon 05:29:38 PM 44.6000 -107.5206 94° East 535 616 37,100  Climbing Salt Lake Center
Mon 05:30:40 PM 44.5919 -107.3131 93° East 539 620 37,000 -48 Descending Salt Lake Center
Mon 05:31:42 PM 44.5825 -107.0628 93° East 539 620 37,000  Level Salt Lake Center
Mon 05:32:44 PM 44.5728 -106.8550 94° East 538 619 37,000  Level Salt Lake Center
Mon 05:33:46 PM 44.5639 -106.6475 93° East 537 618 37,000  Level Salt Lake Center
Mon 05:34:20 PM 44.5575 -106.5228 94° East 538 619 37,000  Level Denver Center
Mon 05:35:22 PM 44.5481 -106.3147 94° East 537 618 37,000  Level Denver Center
Mon 05:36:24 PM 44.5364 -106.1089 94° East 534 615 37,000  Level Denver Center
Mon 05:37:26 PM 44.5244 -105.9006 95° East 537 618 37,000  Level Denver Center
Mon 05:38:28 PM 44.5133 -105.6922 94° East 539 620 37,000  Level Denver Center
Mon 05:39:30 PM 44.4986 -105.4433 95° East 537 618 37,000  Level Denver Center
Mon 05:40:32 PM 44.4872 -105.2403 94° East 537 618 37,000  Level Denver Center
Mon 05:41:34 PM 44.4700 -105.0069 96° East 537 618 37,000  Level Denver Center
Mon 05:42:36 PM 44.4339 -104.8147 105° East 535 616 37,000  Level Denver Center
Mon 05:43:38 PM 44.3997 -104.6247 104° East 530 610 37,000  Level Denver Center
Mon 05:44:40 PM 44.3589 -104.4019 104° East 528 608 37,000  Level Denver Center
Mon 05:45:42 PM 44.3253 -104.2094 104° East 532 612 37,000  Level Denver Center
Mon 05:46:44 PM 44.2872 -103.9844 103° East 533 613 37,000  Level Denver Center
Mon 05:47:46 PM 44.2536 -103.7956 104° East 528 608 37,000  Level Denver Center
Mon 05:48:48 PM 44.2272 -103.5675 99° East 532 612 37,000  Level Denver Center
Mon 05:49:50 PM 44.2172 -103.3686 94° East 536 617 37,000  Level Denver Center
Mon 05:50:52 PM 44.2056 -103.1661 95° East 532 612 37,000  Level Denver Center
Mon 05:51:54 PM 44.1956 -102.9619 94° East 528 608 37,000  Level Denver Center
Mon 05:52:56 PM 44.1778 -102.7156 96° East 533 613 37,000  Level Denver Center
Mon 05:53:58 PM 44.1664 -102.5114 94° East 532 612 37,000  Level Denver Center
Mon 05:55:00 PM 44.1517 -102.3056 96° East 533 613 37,000  Level Denver Center
Mon 05:56:02 PM 44.1361 -102.1008 96° East 534 615 37,000  Level Denver Center
Mon 05:57:04 PM 44.1206 -101.8958 96° East 535 616 37,000  Level Denver Center
Mon 05:58:06 PM 44.1050 -101.6911 96° East 533 613 37,000  Level Denver Center
Mon 05:59:08 PM 44.0897 -101.4500 95° East 530 610 37,000  Level Denver Center
Mon 06:00:10 PM 44.0756 -101.2478 95° East 528 608 37,000  Level Denver Center
Mon 06:01:12 PM 44.0589 -101.0439 96° East 532 612 37,000  Level Denver Center
Mon 06:02:14 PM 44.0433 -100.8417 96° East 531 611 37,000  Level Denver Center
Mon 06:03:34 PM 44.0217 -100.5631 96° East 528 608 37,000  Level Minneapolis Center
Mon 06:04:36 PM 44.0031 -100.3589 97° East 532 612 37,000  Level Minneapolis Center
Mon 06:05:37 PM 43.9869 -100.1575 96° East 530 610 37,000  Level Minneapolis Center
Mon 06:06:39 PM 43.9700 -99.9569 97° East 527 606 37,000  Level Minneapolis Center
Mon 06:07:41 PM 43.9522 -99.7575 97° East 526 605 37,000  Level Minneapolis Center
Mon 06:08:55 PM 43.9311 -99.5164 97° East 526 605 37,000  Level Minneapolis Center
Mon 06:09:57 PM 43.9100 -99.2767 97° East 525 604 37,000  Level Minneapolis Center
Mon 06:10:59 PM 43.8919 -99.0797 97° East 520 598 37,000  Level Minneapolis Center
Mon 06:12:01 PM 43.8736 -98.8856 97° East 513 590 37,000  Level Minneapolis Center
Mon 06:13:03 PM 43.8542 -98.6925 98° East 509 586 37,000  Level Minneapolis Center
Mon 06:14:04 PM 43.8378 -98.5278 98° East 510 587 37,000  Level Minneapolis Center
Mon 06:15:06 PM 43.8136 -98.2983 98° East 505 581 37,000  Level Minneapolis Center
Mon 06:16:08 PM 43.7950 -98.1108 98° East 498 573 37,000  Level Minneapolis Center
Mon 06:17:10 PM 43.7728 -97.8917 98° East 485 558 37,000  Level Minneapolis Center
Mon 06:18:12 PM 43.7533 -97.7133 99° East 475 547 37,000  Level Minneapolis Center
Mon 06:19:14 PM 43.7331 -97.5339 99° East 475 547 37,000  Level Minneapolis Center
Mon 06:20:15 PM 43.7142 -97.3542 98° East 476 548 37,000  Level Minneapolis Center
Mon 06:21:17 PM 43.6978 -97.2092 99° East 479 551 37,000  Level Minneapolis Center
Mon 06:22:19 PM 43.6775 -97.0261 99° East 485 558 37,000  Level Minneapolis Center
Mon 06:23:21 PM 43.6489 -96.7731 99° East 480 552 37,000  Level Minneapolis Center
Mon 06:24:23 PM 43.6364 -96.5919 95° East 478 550 37,000  Level Minneapolis Center
Mon 06:25:37 PM 43.6214 -96.3772 95° East 474 545 37,000  Level Minneapolis Center
Mon 06:26:39 PM 43.6081 -96.1969 96° East 477 549 37,000  Level Minneapolis Center
Mon 06:27:41 PM 43.5944 -96.0161 96° East 478 550 37,000  Level Minneapolis Center
Mon 06:28:54 PM 43.5781 -95.7972 96° East 482 555 37,000  Level Minneapolis Center
Mon 06:29:57 PM 43.5653 -95.5786 95° East 482 555 37,000  Level Minneapolis Center
Mon 06:30:59 PM 43.6244 -95.4214 62° Northeast 470 541 37,000  Level Minneapolis Center
Mon 06:32:01 PM 43.7136 -95.2992 45° Northeast 458 527 37,000  Level Minneapolis Center
Mon 06:33:14 PM 43.8058 -95.1819 43° Northeast 455 524 37,000  Level Minneapolis Center
Mon 06:34:16 PM 43.9161 -95.0444 42° Northeast 449 517 37,000  Level Minneapolis Center
Mon 06:35:19 PM 44.0042 -94.8731 54° Northeast 469 540 37,000  Level Minneapolis Center
Mon 06:36:21 PM 44.0125 -94.6942 86° East 468 539 37,000  Level Minneapolis Center
Mon 06:37:23 PM 43.9678 -94.5208 110° East 472 543 37,000  Level Minneapolis Center
Mon 06:38:25 PM 43.9217 -94.3481 110° East 476 548 37,000  Level Minneapolis Center
Mon 06:39:27 PM 43.8725 -94.1625 110° East 482 555 37,000  Level Minneapolis Center
Mon 06:40:29 PM 43.8267 -93.9883 110° East 485 558 37,000  Level Minneapolis Center
Mon 06:41:31 PM 43.7808 -93.8131 110° East 487 560 37,000  Level Minneapolis Center
Mon 06:42:45 PM 43.7167 -93.5742 110° East 479 551 37,000  Level Minneapolis Center
Mon 06:43:47 PM 43.6719 -93.4058 110° East 474 545 37,000  Level Minneapolis Center
Mon 06:44:49 PM 43.6267 -93.2364 110° East 473 544 37,000  Level Minneapolis Center
Mon 06:46:03 PM 43.5783 -93.0672 111° Southeast 475 547 37,000  Level Minneapolis Center
Mon 06:47:06 PM 43.5219 -92.8622 111° Southeast 480 552 37,000 -144 Level Minneapolis Center
Mon 06:48:08 PM 43.4669 -92.6592 110° East 476 548 36,700 -726 Descending Minneapolis Center
Mon 06:49:10 PM 43.4172 -92.4797 111° Southeast 496 571 35,500 -1,113 Descending Minneapolis Center
Mon 06:50:12 PM 43.3650 -92.2969 111° Southeast 512 589 34,400 -1,016 Descending Minneapolis Center
Mon 06:51:14 PM 43.3164 -92.1189 111° Southeast 507 583 33,400 -1,024 Descending Minneapolis Center
Mon 06:52:15 PM 43.2664 -91.9414 111° Southeast 503 579 32,300 -1,171 Descending Minneapolis Center
Mon 06:53:17 PM 43.2067 -91.7289 111° Southeast 501 577 31,000 -629 Descending Minneapolis Center
Mon 06:54:19 PM 43.1522 -91.5536 113° Southeast 500 575 31,000  Level Minneapolis Center
Mon 06:55:22 PM 43.0897 -91.3794 116° Southeast 507 583 31,000 -425 Level Minneapolis Center
Mon 06:56:12 PM 43.0433 -91.2492 116° Southeast 488 562 30,200 -1,071 Descending Chicago Center
Mon 06:57:14 PM 42.9906 -91.0981 115° Southeast 446 513 29,000 -581 Descending Chicago Center
Mon 06:58:16 PM 42.9286 -90.9661 123° Southeast 428 493 29,000  Level Chicago Center
Mon 06:59:18 PM 42.8242 -90.9022 156° South 426 490 29,000  Level Chicago Center
Mon 07:00:21 PM 42.7642 -90.7269 115° Southeast 438 504 29,000 -384 Level Chicago Center
Mon 07:01:23 PM 42.7247 -90.5733 109° East 437 503 28,200 -1,113 Descending Chicago Center
Mon 07:02:25 PM 42.6842 -90.4133 109° East 450 518 26,700 -1,452 Descending Chicago Center
Mon 07:03:27 PM 42.6428 -90.2467 109° East 469 540 25,200 -1,597 Descending Chicago Center
Mon 07:04:29 PM 42.6156 -90.0397 100° East 467 537 23,400 -1,561 Descending Chicago Center
Mon 07:05:30 PM 42.5903 -89.8875 103° East 449 517 22,000 -1,415 Descending Chicago Center
Mon 07:06:32 PM 42.5650 -89.7244 102° East 443 510 20,500 -1,597 Descending Chicago Center
Mon 07:07:34 PM 42.5383 -89.5414 101° East 425 489 18,700 -1,597 Descending Chicago Center
Mon 07:08:36 PM 42.5144 -89.3892 102° East 414 476 17,200 -1,452 Descending Chicago Center
Mon 07:09:38 PM 42.4914 -89.2394 102° East 408 470 15,700 -1,452 Descending Chicago Center
Mon 07:10:40 PM 42.4689 -89.0925 102° East 401 461 14,200 -1,463 Descending Chicago Center
Mon 07:11:41 PM 42.4467 -88.9475 102° East 395 455 12,700 -1,561 Descending Chicago Center
Mon 07:12:43 PM 42.4200 -88.7800 102° East 392 451 11,000 -1,306 Descending Chicago Center
Mon 07:13:45 PM 42.3839 -88.6464 110° East 380 437 10,000 -484 Descending Chicago Center
Mon 07:14:47 PM 42.3361 -88.5247 118° Southeast 373 429 10,000  Level Chicago Center
Mon 07:15:49 PM 42.2767 -88.4061 124° Southeast 376 433 10,000 -145 Level Chicago Center
Mon 07:16:51 PM 42.2247 -88.2994 123° Southeast 343 395 9,700 -927 Descending Chicago Center
Mon 07:17:52 PM 42.1783 -88.2047 123° Southeast 306 352 8,100 -1,317 Descending Chicago Center
Mon 07:18:54 PM 42.1328 -88.1125 124° Southeast 299 344 7,000 -623 Descending Chicago Center
Mon 07:19:38 PM 42.1000 -88.0333 119° Southeast 303 349 7,000  Level Chicago TRACON
Mon 07:20:32 PM 42.1000 -87.9167 90° East 316 364 7,000  Level Chicago TRACON
Mon 07:21:38 PM 42.0833 -87.8000 101° East 314 361 7,000 -500 Level Chicago TRACON
Mon 07:22:32 PM 42.0833 -87.6833 90° East 300 345 6,000 -1,143 Descending Chicago TRACON
Mon 07:23:02 PM 42.0911 -87.6469 74° East 304 350 5,400 -1,319 Descending Chicago Center
Mon 07:24:03 PM 42.0906 -87.5378 90° East 297 342 4,000 -683 Descending Chicago Center
Mon 07:25:05 PM 42.0908 -87.4308 90° East 290 334 4,000  Level Chicago Center
Mon 07:26:07 PM 42.0556 -87.3600 124° Southeast 282 325 4,000  Level Chicago Center
Mon 07:27:09 PM 42.0072 -87.4189 222° Southwest 226 260 4,000  Level Chicago Center
Mon 07:28:11 PM 41.9978 -87.4983 261° West 221 254 4,000  Level Chicago Center
Mon 07:29:13 PM 42.0033 -87.5669 276° West 199 229 4,000  Level Chicago Center
Mon 07:30:15 PM 42.0022 -87.6303 269° West 183 211 4,000 -194 Level Chicago Center
Mon 07:31:17 PM 42.0025 -87.6961 270° West 179 206 3,600 -387 Descending Chicago Center

Login

Don't have an account? Register now (free) for customized features, flight alerts, and more!